sensor_id;sensor_type;location;lat;lon;timestamp;temperature;humidity
34877;DHT22;21086;44.780;17.194;2022-10-16T00:01:39;13.60;99.90
34877;DHT22;21086;44.780;17.194;2022-10-16T00:04:06;13.50;99.90
34877;DHT22;21086;44.780;17.194;2022-10-16T00:06:33;13.50;99.90
34877;DHT22;21086;44.780;17.194;2022-10-16T00:09:01;13.40;99.90
34877;DHT22;21086;44.780;17.194;2022-10-16T00:11:31;13.40;99.90
34877;DHT22;21086;44.780;17.194;2022-10-16T00:14:05;13.40;99.90
34877;DHT22;21086;44.780;17.194;2022-10-16T00:16:33;13.40;99.90
34877;DHT22;21086;44.780;17.194;2022-10-16T00:19:01;13.40;99.90
34877;DHT22;21086;44.780;17.194;2022-10-16T00:21:29;13.40;99.90
34877;DHT22;21086;44.780;17.194;2022-10-16T00:24:03;13.40;99.90
34877;DHT22;21086;44.780;17.194;2022-10-16T00:26:33;13.00;99.90
34877;DHT22;21086;44.780;17.194;2022-10-16T00:29:02;13.30;99.90
34877;DHT22;21086;44.780;17.194;2022-10-16T00:31:29;13.20;99.90
34877;DHT22;21086;44.780;17.194;2022-10-16T00:33:57;13.30;99.90
34877;DHT22;21086;44.780;17.194;2022-10-16T00:36:25;13.20;99.90
34877;DHT22;21086;44.780;17.194;2022-10-16T00:38:54;13.20;99.90
34877;DHT22;21086;44.780;17.194;2022-10-16T00:41:23;13.20;99.90
34877;DHT22;21086;44.780;17.194;2022-10-16T00:43:56;13.30;99.90
34877;DHT22;21086;44.780;17.194;2022-10-16T00:46:41;13.30;99.90
34877;DHT22;21086;44.780;17.194;2022-10-16T00:49:09;13.20;99.90
34877;DHT22;21086;44.780;17.194;2022-10-16T00:51:48;13.20;99.90
34877;DHT22;21086;44.780;17.194;2022-10-16T00:54:27;13.10;99.90
34877;DHT22;21086;44.780;17.194;2022-10-16T00:56:55;13.20;99.90
34877;DHT22;21086;44.780;17.194;2022-10-16T00:59:26;13.30;99.90
34877;DHT22;21086;44.780;17.194;2022-10-16T01:01:54;13.20;99.90
34877;DHT22;21086;44.780;17.194;2022-10-16T01:04:22;13.20;99.90
34877;DHT22;21086;44.780;17.194;2022-10-16T01:12:15;13.10;99.90
34877;DHT22;21086;44.780;17.194;2022-10-16T01:17:23;13.20;99.90
34877;DHT22;21086;44.780;17.194;2022-10-16T01:25:12;13.20;99.90
34877;DHT22;21086;44.780;17.194;2022-10-16T01:27:45;13.10;99.90
34877;DHT22;21086;44.780;17.194;2022-10-16T01:30:32;13.20;99.90
34877;DHT22;21086;44.780;17.194;2022-10-16T01:33:10;13.20;99.90
34877;DHT22;21086;44.780;17.194;2022-10-16T01:35:47;13.20;99.90
34877;DHT22;21086;44.780;17.194;2022-10-16T01:38:34;13.10;99.90
34877;DHT22;21086;44.780;17.194;2022-10-16T01:41:17;13.10;99.90
34877;DHT22;21086;44.780;17.194;2022-10-16T01:43:49;13.00;99.90
34877;DHT22;21086;44.780;17.194;2022-10-16T01:46:20;13.80;99.90
34877;DHT22;21086;44.780;17.194;2022-10-16T01:48:50;14.00;99.90
34877;DHT22;21086;44.780;17.194;2022-10-16T01:51:19;13.10;99.90
34877;DHT22;21086;44.780;17.194;2022-10-16T01:53:52;11.60;99.90
34877;DHT22;21086;44.780;17.194;2022-10-16T01:56:20;12.90;99.90
34877;DHT22;21086;44.780;17.194;2022-10-16T01:58:55;12.70;99.90
34877;DHT22;21086;44.780;17.194;2022-10-16T02:01:26;13.30;99.90
34877;DHT22;21086;44.780;17.194;2022-10-16T02:04:00;12.90;99.90
34877;DHT22;21086;44.780;17.194;2022-10-16T02:06:29;12.80;1.00
34877;DHT22;21086;44.780;17.194;2022-10-16T02:08:57;11.30;99.90
34877;DHT22;21086;44.780;17.194;2022-10-16T02:11:24;13.40;1.00
34877;DHT22;21086;44.780;17.194;2022-10-16T02:14:01;12.70;99.90
34877;DHT22;21086;44.780;17.194;2022-10-16T02:16:38;12.70;99.90
34877;DHT22;21086;44.780;17.194;2022-10-16T02:19:06;12.70;99.90
34877;DHT22;21086;44.780;17.194;2022-10-16T02:22:00;12.70;99.90
34877;DHT22;21086;44.780;17.194;2022-10-16T02:24:38;12.70;99.90
34877;DHT22;21086;44.780;17.194;2022-10-16T02:29:35;12.80;99.90
34877;DHT22;21086;44.780;17.194;2022-10-16T02:32:06;12.70;99.90
34877;DHT22;21086;44.780;17.194;2022-10-16T02:34:34;12.60;99.90
34877;DHT22;21086;44.780;17.194;2022-10-16T02:37:03;12.70;99.90
34877;DHT22;21086;44.780;17.194;2022-10-16T02:39:31;12.70;99.90
34877;DHT22;21086;44.780;17.194;2022-10-16T02:41:58;12.70;99.90
34877;DHT22;21086;44.780;17.194;2022-10-16T02:44:25;12.60;99.90
34877;DHT22;21086;44.780;17.194;2022-10-16T02:46:52;12.70;1.00
34877;DHT22;21086;44.780;17.194;2022-10-16T02:49:19;12.70;99.90
34877;DHT22;21086;44.780;17.194;2022-10-16T02:51:46;12.70;1.00
34877;DHT22;21086;44.780;17.194;2022-10-16T02:54:13;12.60;99.90
34877;DHT22;21086;44.780;17.194;2022-10-16T02:56:41;12.60;99.90
34877;DHT22;21086;44.780;17.194;2022-10-16T02:59:08;13.00;1.00
34877;DHT22;21086;44.780;17.194;2022-10-16T03:01:35;12.40;1.00
34877;DHT22;21086;44.780;17.194;2022-10-16T03:04:03;12.60;99.90
34877;DHT22;21086;44.780;17.194;2022-10-16T03:06:30;12.40;99.90
34877;DHT22;21086;44.780;17.194;2022-10-16T03:08:57;12.40;99.90
34877;DHT22;21086;44.780;17.194;2022-10-16T03:11:24;12.40;1.00
34877;DHT22;21086;44.780;17.194;2022-10-16T03:13:51;12.50;1.00
34877;DHT22;21086;44.780;17.194;2022-10-16T03:16:18;12.50;1.00
34877;DHT22;21086;44.780;17.194;2022-10-16T03:18:48;12.60;1.00
34877;DHT22;21086;44.780;17.194;2022-10-16T03:21:16;12.40;99.90
34877;DHT22;21086;44.780;17.194;2022-10-16T03:23:44;11.40;1.00
34877;DHT22;21086;44.780;17.194;2022-10-16T03:26:11;13.20;1.00
34877;DHT22;21086;44.780;17.194;2022-10-16T03:28:38;12.50;1.00
34877;DHT22;21086;44.780;17.194;2022-10-16T03:31:05;12.40;1.00
34877;DHT22;21086;44.780;17.194;2022-10-16T03:33:32;12.50;1.00
34877;DHT22;21086;44.780;17.194;2022-10-16T03:35:59;12.40;99.90
34877;DHT22;21086;44.780;17.194;2022-10-16T03:38:26;12.40;99.90
34877;DHT22;21086;44.780;17.194;2022-10-16T03:40:53;12.40;99.90
34877;DHT22;21086;44.780;17.194;2022-10-16T03:43:20;12.30;99.90
34877;DHT22;21086;44.780;17.194;2022-10-16T03:45:47;12.30;99.90
34877;DHT22;21086;44.780;17.194;2022-10-16T03:48:13;12.20;99.90
34877;DHT22;21086;44.780;17.194;2022-10-16T03:50:41;12.10;99.90
34877;DHT22;21086;44.780;17.194;2022-10-16T03:53:07;12.10;99.90
34877;DHT22;21086;44.780;17.194;2022-10-16T03:55:35;12.20;99.90
34877;DHT22;21086;44.780;17.194;2022-10-16T03:58:01;12.10;99.90
34877;DHT22;21086;44.780;17.194;2022-10-16T04:00:29;12.10;99.90
34877;DHT22;21086;44.780;17.194;2022-10-16T04:02:56;12.10;99.90
34877;DHT22;21086;44.780;17.194;2022-10-16T04:05:23;12.10;99.90
34877;DHT22;21086;44.780;17.194;2022-10-16T04:07:49;12.00;99.90
34877;DHT22;21086;44.780;17.194;2022-10-16T04:10:17;12.00;99.90
34877;DHT22;21086;44.780;17.194;2022-10-16T04:12:44;11.90;99.90
34877;DHT22;21086;44.780;17.194;2022-10-16T04:15:10;12.00;99.90
34877;DHT22;21086;44.780;17.194;2022-10-16T04:17:38;12.10;99.90
34877;DHT22;21086;44.780;17.194;2022-10-16T04:20:05;12.10;99.90
34877;DHT22;21086;44.780;17.194;2022-10-16T04:22:32;12.00;99.90
34877;DHT22;21086;44.780;17.194;2022-10-16T04:24:59;12.00;99.90
34877;DHT22;21086;44.780;17.194;2022-10-16T04:27:26;12.10;99.90
34877;DHT22;21086;44.780;17.194;2022-10-16T04:29:53;12.10;99.90
34877;DHT22;21086;44.780;17.194;2022-10-16T04:32:20;12.10;99.90
34877;DHT22;21086;44.780;17.194;2022-10-16T04:34:47;12.10;99.90
34877;DHT22;21086;44.780;17.194;2022-10-16T04:37:14;12.00;99.90
34877;DHT22;21086;44.780;17.194;2022-10-16T04:39:41;11.90;99.90
34877;DHT22;21086;44.780;17.194;2022-10-16T04:42:08;11.90;99.90
34877;DHT22;21086;44.780;17.194;2022-10-16T04:44:35;11.90;99.90
34877;DHT22;21086;44.780;17.194;2022-10-16T04:47:02;12.00;99.90
34877;DHT22;21086;44.780;17.194;2022-10-16T04:49:28;12.00;99.90
34877;DHT22;21086;44.780;17.194;2022-10-16T04:51:56;11.90;99.90
34877;DHT22;21086;44.780;17.194;2022-10-16T04:54:23;12.00;99.90
34877;DHT22;21086;44.780;17.194;2022-10-16T04:56:49;12.00;99.90
34877;DHT22;21086;44.780;17.194;2022-10-16T04:59:19;12.00;99.90
34877;DHT22;21086;44.780;17.194;2022-10-16T05:01:46;12.00;99.90
34877;DHT22;21086;44.780;17.194;2022-10-16T05:04:13;12.00;99.90
34877;DHT22;21086;44.780;17.194;2022-10-16T05:06:42;12.10;99.90
34877;DHT22;21086;44.780;17.194;2022-10-16T05:09:09;12.10;99.90
34877;DHT22;21086;44.780;17.194;2022-10-16T05:11:36;12.00;99.90
34877;DHT22;21086;44.780;17.194;2022-10-16T05:14:03;12.00;99.90
34877;DHT22;21086;44.780;17.194;2022-10-16T05:16:30;12.00;99.90
34877;DHT22;21086;44.780;17.194;2022-10-16T05:18:58;12.00;99.90
34877;DHT22;21086;44.780;17.194;2022-10-16T05:21:45;11.90;99.90
34877;DHT22;21086;44.780;17.194;2022-10-16T05:24:12;11.80;1.00
34877;DHT22;21086;44.780;17.194;2022-10-16T05:26:39;11.70;1.00
34877;DHT22;21086;44.780;17.194;2022-10-16T05:29:06;11.80;1.00
34877;DHT22;21086;44.780;17.194;2022-10-16T05:31:34;13.20;1.00
34877;DHT22;21086;44.780;17.194;2022-10-16T05:34:02;12.00;1.00
34877;DHT22;21086;44.780;17.194;2022-10-16T05:36:29;11.60;1.00
34877;DHT22;21086;44.780;17.194;2022-10-16T05:38:57;11.80;1.00
34877;DHT22;21086;44.780;17.194;2022-10-16T05:41:24;10.60;1.00
34877;DHT22;21086;44.780;17.194;2022-10-16T05:43:53;11.20;99.90
34877;DHT22;21086;44.780;17.194;2022-10-16T05:46:20;10.70;1.00
34877;DHT22;21086;44.780;17.194;2022-10-16T05:48:48;10.80;1.00
34877;DHT22;21086;44.780;17.194;2022-10-16T05:51:18;12.00;99.90
34877;DHT22;21086;44.780;17.194;2022-10-16T05:53:46;10.70;1.00
34877;DHT22;21086;44.780;17.194;2022-10-16T05:56:13;11.60;1.00
34877;DHT22;21086;44.780;17.194;2022-10-16T05:58:41;12.00;1.00
34877;DHT22;21086;44.780;17.194;2022-10-16T06:01:15;12.10;99.90
34877;DHT22;21086;44.780;17.194;2022-10-16T06:03:43;12.80;99.90
34877;DHT22;21086;44.780;17.194;2022-10-16T06:06:13;11.10;1.00
34877;DHT22;21086;44.780;17.194;2022-10-16T06:08:42;11.70;1.00
34877;DHT22;21086;44.780;17.194;2022-10-16T06:11:12;12.20;99.90
34877;DHT22;21086;44.780;17.194;2022-10-16T06:13:43;12.70;99.90
34877;DHT22;21086;44.780;17.194;2022-10-16T06:16:12;14.30;1.00
34877;DHT22;21086;44.780;17.194;2022-10-16T06:18:39;12.90;1.00
34877;DHT22;21086;44.780;17.194;2022-10-16T06:21:09;13.00;99.90
34877;DHT22;21086;44.780;17.194;2022-10-16T06:23:36;13.00;99.90
34877;DHT22;21086;44.780;17.194;2022-10-16T06:26:09;13.10;1.00
34877;DHT22;21086;44.780;17.194;2022-10-16T06:28:37;13.10;99.90
34877;DHT22;21086;44.780;17.194;2022-10-16T06:31:06;13.20;99.90
34877;DHT22;21086;44.780;17.194;2022-10-16T06:33:35;13.30;99.90
34877;DHT22;21086;44.780;17.194;2022-10-16T06:36:07;13.20;99.90
34877;DHT22;21086;44.780;17.194;2022-10-16T06:38:36;13.40;99.90
34877;DHT22;21086;44.780;17.194;2022-10-16T06:41:05;13.40;99.90
34877;DHT22;21086;44.780;17.194;2022-10-16T06:43:33;13.50;99.90
34877;DHT22;21086;44.780;17.194;2022-10-16T06:46:03;13.70;99.90
34877;DHT22;21086;44.780;17.194;2022-10-16T06:48:31;13.80;99.90
34877;DHT22;21086;44.780;17.194;2022-10-16T06:51:04;13.70;99.90
34877;DHT22;21086;44.780;17.194;2022-10-16T06:58:42;14.10;99.90
34877;DHT22;21086;44.780;17.194;2022-10-16T07:01:10;13.20;99.90
34877;DHT22;21086;44.780;17.194;2022-10-16T07:03:39;14.80;99.90
34877;DHT22;21086;44.780;17.194;2022-10-16T07:06:08;14.90;99.90
34877;DHT22;21086;44.780;17.194;2022-10-16T07:08:37;15.10;99.90
34877;DHT22;21086;44.780;17.194;2022-10-16T07:11:13;15.10;99.90
34877;DHT22;21086;44.780;17.194;2022-10-16T07:13:42;15.10;99.90
34877;DHT22;21086;44.780;17.194;2022-10-16T07:16:18;15.10;99.90
34877;DHT22;21086;44.780;17.194;2022-10-16T07:18:46;15.20;99.90
34877;DHT22;21086;44.780;17.194;2022-10-16T07:21:16;15.20;99.90
34877;DHT22;21086;44.780;17.194;2022-10-16T07:23:43;15.30;99.90
34877;DHT22;21086;44.780;17.194;2022-10-16T07:26:10;15.50;99.90
34877;DHT22;21086;44.780;17.194;2022-10-16T07:28:38;15.60;99.90
34877;DHT22;21086;44.780;17.194;2022-10-16T07:31:09;15.70;99.90
34877;DHT22;21086;44.780;17.194;2022-10-16T07:33:37;15.90;99.90
34877;DHT22;21086;44.780;17.194;2022-10-16T07:36:05;15.90;99.90
34877;DHT22;21086;44.780;17.194;2022-10-16T07:38:32;16.00;99.90
34877;DHT22;21086;44.780;17.194;2022-10-16T07:41:04;16.10;99.90
34877;DHT22;21086;44.780;17.194;2022-10-16T07:43:32;16.20;99.90
34877;DHT22;21086;44.780;17.194;2022-10-16T07:45:59;16.40;99.90
34877;DHT22;21086;44.780;17.194;2022-10-16T07:48:34;16.50;99.90
34877;DHT22;21086;44.780;17.194;2022-10-16T07:51:04;16.50;99.90
34877;DHT22;21086;44.780;17.194;2022-10-16T07:53:32;16.60;99.90
34877;DHT22;21086;44.780;17.194;2022-10-16T07:56:00;16.70;99.90
34877;DHT22;21086;44.780;17.194;2022-10-16T07:58:30;16.80;99.90
34877;DHT22;21086;44.780;17.194;2022-10-16T08:00:58;16.90;99.90
34877;DHT22;21086;44.780;17.194;2022-10-16T08:03:25;17.00;99.90
34877;DHT22;21086;44.780;17.194;2022-10-16T08:05:52;17.10;99.90
34877;DHT22;21086;44.780;17.194;2022-10-16T08:08:19;17.30;99.90
34877;DHT22;21086;44.780;17.194;2022-10-16T08:10:46;17.40;99.90
34877;DHT22;21086;44.780;17.194;2022-10-16T08:13:14;17.40;99.90
34877;DHT22;21086;44.780;17.194;2022-10-16T08:15:45;17.50;99.90
34877;DHT22;21086;44.780;17.194;2022-10-16T08:18:13;17.70;99.90
34877;DHT22;21086;44.780;17.194;2022-10-16T08:20:41;17.80;99.90
34877;DHT22;21086;44.780;17.194;2022-10-16T08:23:10;17.90;99.90
34877;DHT22;21086;44.780;17.194;2022-10-16T08:25:38;18.00;99.90
34877;DHT22;21086;44.780;17.194;2022-10-16T08:28:06;18.10;99.90
34877;DHT22;21086;44.780;17.194;2022-10-16T08:30:33;18.20;99.90
34877;DHT22;21086;44.780;17.194;2022-10-16T08:33:00;18.40;99.90
34877;DHT22;21086;44.780;17.194;2022-10-16T08:35:28;18.60;99.90
34877;DHT22;21086;44.780;17.194;2022-10-16T08:37:54;18.70;99.90
34877;DHT22;21086;44.780;17.194;2022-10-16T08:40:28;18.90;99.90
34877;DHT22;21086;44.780;17.194;2022-10-16T08:51:06;19.90;99.90
34877;DHT22;21086;44.780;17.194;2022-10-16T08:53:48;20.10;99.90
34877;DHT22;21086;44.780;17.194;2022-10-16T08:56:17;20.30;99.90
34877;DHT22;21086;44.780;17.194;2022-10-16T08:58:46;20.70;99.90
34877;DHT22;21086;44.780;17.194;2022-10-16T09:01:20;20.80;99.90
34877;DHT22;21086;44.780;17.194;2022-10-16T09:06:37;21.40;99.90
34877;DHT22;21086;44.780;17.194;2022-10-16T09:20:26;22.50;99.90
34877;DHT22;21086;44.780;17.194;2022-10-16T09:25:27;23.00;99.90
34877;DHT22;21086;44.780;17.194;2022-10-16T09:27:54;23.20;99.90
34877;DHT22;21086;44.780;17.194;2022-10-16T09:30:22;23.50;99.90
34877;DHT22;21086;44.780;17.194;2022-10-16T09:32:51;23.70;99.90
34877;DHT22;21086;44.780;17.194;2022-10-16T09:35:21;23.80;99.90
34877;DHT22;21086;44.780;17.194;2022-10-16T09:37:51;23.90;99.90
34877;DHT22;21086;44.780;17.194;2022-10-16T09:40:32;24.40;99.90
34877;DHT22;21086;44.780;17.194;2022-10-16T09:43:24;24.90;99.90
34877;DHT22;21086;44.780;17.194;2022-10-16T09:46:04;25.40;99.90
34877;DHT22;21086;44.780;17.194;2022-10-16T09:48:38;25.70;99.90
34877;DHT22;21086;44.780;17.194;2022-10-16T09:51:18;26.10;99.90
34877;DHT22;21086;44.780;17.194;2022-10-16T09:53:46;26.70;99.90
34877;DHT22;21086;44.780;17.194;2022-10-16T09:56:33;27.00;99.90
34877;DHT22;21086;44.780;17.194;2022-10-16T09:59:28;27.30;99.90
34877;DHT22;21086;44.780;17.194;2022-10-16T10:02:02;27.30;99.90
34877;DHT22;21086;44.780;17.194;2022-10-16T10:04:40;27.60;99.90
34877;DHT22;21086;44.780;17.194;2022-10-16T10:07:26;28.40;99.90
34877;DHT22;21086;44.780;17.194;2022-10-16T10:09:56;28.70;99.90
34877;DHT22;21086;44.780;17.194;2022-10-16T10:12:25;29.60;99.90
34877;DHT22;21086;44.780;17.194;2022-10-16T10:15:04;30.40;99.90
34877;DHT22;21086;44.780;17.194;2022-10-16T10:17:32;30.80;99.90
34877;DHT22;21086;44.780;17.194;2022-10-16T10:20:24;31.60;99.90
34877;DHT22;21086;44.780;17.194;2022-10-16T10:22:51;32.30;99.90
34877;DHT22;21086;44.780;17.194;2022-10-16T10:25:39;32.80;99.90
34877;DHT22;21086;44.780;17.194;2022-10-16T10:28:17;33.80;99.90
34877;DHT22;21086;44.780;17.194;2022-10-16T10:39:15;35.60;99.90
34877;DHT22;21086;44.780;17.194;2022-10-16T10:53:07;39.30;99.90
34877;DHT22;21086;44.780;17.194;2022-10-16T10:58:49;39.40;99.90
34877;DHT22;21086;44.780;17.194;2022-10-16T11:01:47;39.50;99.90
34877;DHT22;21086;44.780;17.194;2022-10-16T11:07:40;39.30;99.90
34877;DHT22;21086;44.780;17.194;2022-10-16T11:10:17;39.70;99.90
34877;DHT22;21086;44.780;17.194;2022-10-16T11:13:11;40.00;99.90
34877;DHT22;21086;44.780;17.194;2022-10-16T11:15:40;40.20;99.90
34877;DHT22;21086;44.780;17.194;2022-10-16T11:18:32;39.90;99.90
34877;DHT22;21086;44.780;17.194;2022-10-16T11:21:07;39.30;99.90
34877;DHT22;21086;44.780;17.194;2022-10-16T11:23:43;38.70;99.90
34877;DHT22;21086;44.780;17.194;2022-10-16T11:26:16;38.30;99.90
34877;DHT22;21086;44.780;17.194;2022-10-16T11:28:52;38.50;99.90
34877;DHT22;21086;44.780;17.194;2022-10-16T11:31:40;39.20;99.90
34877;DHT22;21086;44.780;17.194;2022-10-16T11:36:56;40.40;99.90
34877;DHT22;21086;44.780;17.194;2022-10-16T11:39:28;40.60;99.90
34877;DHT22;21086;44.780;17.194;2022-10-16T11:42:19;40.60;99.90
34877;DHT22;21086;44.780;17.194;2022-10-16T11:45:22;39.30;99.90
34877;DHT22;21086;44.780;17.194;2022-10-16T11:47:57;39.40;99.90
34877;DHT22;21086;44.780;17.194;2022-10-16T11:55:43;39.80;99.90
34877;DHT22;21086;44.780;17.194;2022-10-16T11:58:20;39.70;99.90
34877;DHT22;21086;44.780;17.194;2022-10-16T12:08:35;40.40;99.90
34877;DHT22;21086;44.780;17.194;2022-10-16T12:16:52;41.70;99.90
34877;DHT22;21086;44.780;17.194;2022-10-16T12:19:21;42.10;99.90
34877;DHT22;21086;44.780;17.194;2022-10-16T12:21:49;41.40;99.90
34877;DHT22;21086;44.780;17.194;2022-10-16T12:24:36;41.50;99.90
34877;DHT22;21086;44.780;17.194;2022-10-16T12:27:06;41.80;99.90
34877;DHT22;21086;44.780;17.194;2022-10-16T12:29:41;42.00;99.90
34877;DHT22;21086;44.780;17.194;2022-10-16T12:32:38;41.70;99.90
34877;DHT22;21086;44.780;17.194;2022-10-16T12:35:43;41.60;99.90
34877;DHT22;21086;44.780;17.194;2022-10-16T12:40:55;42.50;99.90
34877;DHT22;21086;44.780;17.194;2022-10-16T12:43:43;42.20;99.90
34877;DHT22;21086;44.780;17.194;2022-10-16T12:48:40;42.40;99.90
34877;DHT22;21086;44.780;17.194;2022-10-16T12:54:29;41.90;99.90
34877;DHT22;21086;44.780;17.194;2022-10-16T12:57:29;41.30;99.90
34877;DHT22;21086;44.780;17.194;2022-10-16T13:03:40;41.30;99.90
34877;DHT22;21086;44.780;17.194;2022-10-16T13:09:34;42.30;99.90
34877;DHT22;21086;44.780;17.194;2022-10-16T13:12:15;42.50;99.90
34877;DHT22;21086;44.780;17.194;2022-10-16T13:17:44;42.60;99.90
34877;DHT22;21086;44.780;17.194;2022-10-16T13:23:07;43.10;99.90
34877;DHT22;21086;44.780;17.194;2022-10-16T13:25:48;42.70;99.90
34877;DHT22;21086;44.780;17.194;2022-10-16T13:28:19;43.20;99.90
34877;DHT22;21086;44.780;17.194;2022-10-16T13:30:54;43.30;99.90
34877;DHT22;21086;44.780;17.194;2022-10-16T13:33:35;42.50;99.90
34877;DHT22;21086;44.780;17.194;2022-10-16T13:36:03;42.30;99.90
34877;DHT22;21086;44.780;17.194;2022-10-16T13:38:35;42.00;99.90
34877;DHT22;21086;44.780;17.194;2022-10-16T13:41:17;42.30;99.90
34877;DHT22;21086;44.780;17.194;2022-10-16T13:43:49;41.90;99.90
34877;DHT22;21086;44.780;17.194;2022-10-16T13:46:22;41.20;99.90
34877;DHT22;21086;44.780;17.194;2022-10-16T13:48:59;40.70;99.90
34877;DHT22;21086;44.780;17.194;2022-10-16T13:51:28;40.50;99.90
34877;DHT22;21086;44.780;17.194;2022-10-16T13:53:56;40.50;99.90
34877;DHT22;21086;44.780;17.194;2022-10-16T13:56:29;40.50;99.90
34877;DHT22;21086;44.780;17.194;2022-10-16T13:59:00;40.30;99.90
34877;DHT22;21086;44.780;17.194;2022-10-16T14:01:30;40.20;99.90
34877;DHT22;21086;44.780;17.194;2022-10-16T14:04:08;40.00;99.90
34877;DHT22;21086;44.780;17.194;2022-10-16T14:06:36;39.80;99.90
34877;DHT22;21086;44.780;17.194;2022-10-16T14:09:24;39.70;99.90
34877;DHT22;21086;44.780;17.194;2022-10-16T14:11:56;39.60;99.90
34877;DHT22;21086;44.780;17.194;2022-10-16T14:14:24;39.70;99.90
34877;DHT22;21086;44.780;17.194;2022-10-16T14:16:51;40.10;99.90
34877;DHT22;21086;44.780;17.194;2022-10-16T14:19:22;40.00;99.90
34877;DHT22;21086;44.780;17.194;2022-10-16T14:21:51;39.60;99.90
34877;DHT22;21086;44.780;17.194;2022-10-16T14:24:33;39.80;99.90
34877;DHT22;21086;44.780;17.194;2022-10-16T14:27:01;39.60;99.90
34877;DHT22;21086;44.780;17.194;2022-10-16T14:29:29;39.60;99.90
34877;DHT22;21086;44.780;17.194;2022-10-16T14:32:03;39.40;99.90
34877;DHT22;21086;44.780;17.194;2022-10-16T14:34:37;39.30;99.90
34877;DHT22;21086;44.780;17.194;2022-10-16T14:37:27;39.40;99.90
34877;DHT22;21086;44.780;17.194;2022-10-16T14:39:56;39.30;99.90
34877;DHT22;21086;44.780;17.194;2022-10-16T14:42:24;39.40;99.90
34877;DHT22;21086;44.780;17.194;2022-10-16T14:44:53;39.10;99.90
34877;DHT22;21086;44.780;17.194;2022-10-16T14:47:25;38.80;99.90
34877;DHT22;21086;44.780;17.194;2022-10-16T14:49:54;38.80;99.90
34877;DHT22;21086;44.780;17.194;2022-10-16T14:52:26;38.40;99.90
34877;DHT22;21086;44.780;17.194;2022-10-16T14:54:53;37.90;99.90
34877;DHT22;21086;44.780;17.194;2022-10-16T14:57:25;37.70;99.90
34877;DHT22;21086;44.780;17.194;2022-10-16T14:59:53;37.40;99.90
34877;DHT22;21086;44.780;17.194;2022-10-16T15:04:49;37.50;99.90
34877;DHT22;21086;44.780;17.194;2022-10-16T15:07:16;37.20;99.90
34877;DHT22;21086;44.780;17.194;2022-10-16T15:09:43;36.90;99.90
34877;DHT22;21086;44.780;17.194;2022-10-16T15:12:15;36.80;99.90
34877;DHT22;21086;44.780;17.194;2022-10-16T15:14:43;36.70;99.90
34877;DHT22;21086;44.780;17.194;2022-10-16T15:17:10;36.20;99.90
34877;DHT22;21086;44.780;17.194;2022-10-16T15:19:37;35.80;99.90
34877;DHT22;21086;44.780;17.194;2022-10-16T15:22:04;35.50;99.90
34877;DHT22;21086;44.780;17.194;2022-10-16T15:24:31;35.40;99.90
34877;DHT22;21086;44.780;17.194;2022-10-16T15:26:58;35.20;99.90
34877;DHT22;21086;44.780;17.194;2022-10-16T15:29:24;34.50;99.90
34877;DHT22;21086;44.780;17.194;2022-10-16T15:31:52;34.10;99.90
34877;DHT22;21086;44.780;17.194;2022-10-16T15:34:19;33.70;99.90
34877;DHT22;21086;44.780;17.194;2022-10-16T15:36:46;33.40;99.90
34877;DHT22;21086;44.780;17.194;2022-10-16T15:39:16;33.00;99.90
34877;DHT22;21086;44.780;17.194;2022-10-16T15:41:45;32.50;99.90
34877;DHT22;21086;44.780;17.194;2022-10-16T15:44:17;32.10;99.90
34877;DHT22;21086;44.780;17.194;2022-10-16T15:46:44;31.30;99.90
34877;DHT22;21086;44.780;17.194;2022-10-16T15:49:11;30.70;99.90
34877;DHT22;21086;44.780;17.194;2022-10-16T15:51:41;29.60;99.90
34877;DHT22;21086;44.780;17.194;2022-10-16T15:54:08;28.90;99.90
34877;DHT22;21086;44.780;17.194;2022-10-16T15:56:35;28.30;99.90
34877;DHT22;21086;44.780;17.194;2022-10-16T15:59:04;27.60;99.90
34877;DHT22;21086;44.780;17.194;2022-10-16T16:01:35;26.90;99.90
34877;DHT22;21086;44.780;17.194;2022-10-16T16:04:02;26.20;99.90
34877;DHT22;21086;44.780;17.194;2022-10-16T16:06:37;25.50;99.90
34877;DHT22;21086;44.780;17.194;2022-10-16T16:09:06;24.90;99.90
34877;DHT22;21086;44.780;17.194;2022-10-16T16:11:33;24.40;99.90
34877;DHT22;21086;44.780;17.194;2022-10-16T16:14:07;24.00;99.90
34877;DHT22;21086;44.780;17.194;2022-10-16T16:16:36;23.60;99.90
34877;DHT22;21086;44.780;17.194;2022-10-16T16:19:05;23.30;99.90
34877;DHT22;21086;44.780;17.194;2022-10-16T16:21:38;23.10;99.90
34877;DHT22;21086;44.780;17.194;2022-10-16T16:24:05;22.80;99.90
34877;DHT22;21086;44.780;17.194;2022-10-16T16:26:36;22.50;99.90
34877;DHT22;21086;44.780;17.194;2022-10-16T16:29:06;22.40;99.90
34877;DHT22;21086;44.780;17.194;2022-10-16T16:31:33;22.20;99.90
34877;DHT22;21086;44.780;17.194;2022-10-16T16:34:01;22.00;99.90
34877;DHT22;21086;44.780;17.194;2022-10-16T16:36:28;21.70;99.90
34877;DHT22;21086;44.780;17.194;2022-10-16T16:38:56;21.50;99.90
34877;DHT22;21086;44.780;17.194;2022-10-16T16:41:26;21.40;99.90
34877;DHT22;21086;44.780;17.194;2022-10-16T16:43:55;21.30;99.90
34877;DHT22;21086;44.780;17.194;2022-10-16T16:46:22;21.10;99.90
34877;DHT22;21086;44.780;17.194;2022-10-16T16:48:49;21.00;99.90
34877;DHT22;21086;44.780;17.194;2022-10-16T16:51:17;20.80;99.90
34877;DHT22;21086;44.780;17.194;2022-10-16T16:53:48;20.60;99.90
34877;DHT22;21086;44.780;17.194;2022-10-16T16:56:16;20.60;99.90
34877;DHT22;21086;44.780;17.194;2022-10-16T16:58:50;20.50;99.90
34877;DHT22;21086;44.780;17.194;2022-10-16T17:01:18;20.50;99.90
34877;DHT22;21086;44.780;17.194;2022-10-16T17:03:48;20.40;99.90
34877;DHT22;21086;44.780;17.194;2022-10-16T17:06:18;20.30;99.90
34877;DHT22;21086;44.780;17.194;2022-10-16T17:08:48;20.20;99.90
34877;DHT22;21086;44.780;17.194;2022-10-16T17:11:20;20.10;99.90
34877;DHT22;21086;44.780;17.194;2022-10-16T17:13:49;19.90;99.90
34877;DHT22;21086;44.780;17.194;2022-10-16T17:16:24;19.80;99.90
34877;DHT22;21086;44.780;17.194;2022-10-16T17:18:51;19.70;99.90
34877;DHT22;21086;44.780;17.194;2022-10-16T17:21:19;19.60;99.90
34877;DHT22;21086;44.780;17.194;2022-10-16T17:23:46;19.60;99.90
34877;DHT22;21086;44.780;17.194;2022-10-16T17:26:15;19.50;99.90
34877;DHT22;21086;44.780;17.194;2022-10-16T17:28:43;19.50;99.90
34877;DHT22;21086;44.780;17.194;2022-10-16T17:31:13;19.50;99.90
34877;DHT22;21086;44.780;17.194;2022-10-16T17:33:41;19.30;99.90
34877;DHT22;21086;44.780;17.194;2022-10-16T17:36:10;19.20;99.90
34877;DHT22;21086;44.780;17.194;2022-10-16T17:38:38;19.20;99.90